createdAt,value
2023-01-26T00:05:38.463Z,74.54
2023-01-26T00:15:56.309Z,74.39
2023-01-26T00:26:37.576Z,73.61
2023-01-26T00:37:56.305Z,74.24
2023-01-26T00:49:03.199Z,74.05
2023-01-26T01:00:20.085Z,74.34
2023-01-26T01:11:27.644Z,74.88
2023-01-26T01:22:22.630Z,75.09
2023-01-26T01:33:47.252Z,74.64
2023-01-26T01:45:17.128Z,74.32
2023-01-26T01:56:35.029Z,74.94
2023-01-26T02:07:34.116Z,74.01
2023-01-26T02:18:41.674Z,73.69
2023-01-26T02:29:46.206Z,74.09
2023-01-26T02:40:39.388Z,74.45
2023-01-26T02:50:51.565Z,74.44
2023-01-26T03:01:32.556Z,74.49
2023-01-26T03:11:45.738Z,75.18
2023-01-26T03:22:21.047Z,75.55
2023-01-26T03:32:59.800Z,75.57
2023-01-26T03:43:54.789Z,75.86
2023-01-26T03:54:34.385Z,75.49
2023-01-26T04:05:12.145Z,75.39
2023-01-26T04:16:08.396Z,75.42
2023-01-26T04:26:55.823Z,76.19
2023-01-26T04:38:00.581Z,75.55
2023-01-26T04:48:53.463Z,75.99
2023-01-26T04:59:26.539Z,75.69
2023-01-26T05:10:15.930Z,75.63
2023-01-26T05:21:04.248Z,75.66
2023-01-26T05:32:10.963Z,76.39
2023-01-26T05:42:35.457Z,76.17
2023-01-26T05:53:08.167Z,76.08
2023-01-26T06:03:49.058Z,75.70
2023-01-26T06:14:56.658Z,76.78
2023-01-26T06:25:21.842Z,76.70
2023-01-26T06:36:36.345Z,76.32
2023-01-26T06:47:38.202Z,76.27
2023-01-26T06:58:12.726Z,76.27
2023-01-26T07:08:55.655Z,76.60
2023-01-26T07:19:21.308Z,75.92
2023-01-26T07:29:37.371Z,75.92
2023-01-26T07:39:55.882Z,75.83
2023-01-26T07:50:24.834Z,75.69
2023-01-26T08:01:11.991Z,75.60
2023-01-26T08:11:39.176Z,75.62
2023-01-26T08:21:59.340Z,75.32
2023-01-26T08:32:51.249Z,75.31
2023-01-26T08:43:35.469Z,74.88
2023-01-26T08:54:09.835Z,74.58
2023-01-26T09:05:03.708Z,74.07
2023-01-26T09:16:03.929Z,73.38
2023-01-26T09:26:31.707Z,73.26
2023-01-26T09:37:12.247Z,73.11
2023-01-26T09:48:09.060Z,72.27
2023-01-26T09:59:40.952Z,71.57
2023-01-26T10:10:24.140Z,71.38
2023-01-26T10:20:58.866Z,70.95
2023-01-26T10:31:13.016Z,70.08
2023-01-26T10:41:23.144Z,69.39
2023-01-26T10:51:32.638Z,69.22
2023-01-26T11:01:59.390Z,69.52
2023-01-26T11:12:11.181Z,68.41
2023-01-26T11:22:53.724Z,67.94
2023-01-26T11:33:11.010Z,68.13
2023-01-26T11:43:27.568Z,67.69
2023-01-26T11:54:18.106Z,67.86
2023-01-26T12:04:38.607Z,67.88
2023-01-26T12:14:59.715Z,68.12
2023-01-26T12:25:45.904Z,68.21
2023-01-26T12:36:17.592Z,68.71
2023-01-26T12:46:25.483Z,69.48
2023-01-26T12:57:05.211Z,69.79
2023-01-26T13:07:31.585Z,70.05
2023-01-26T13:17:49.487Z,70.21
2023-01-26T13:28:13.881Z,70.26
2023-01-26T13:38:25.161Z,70.60
2023-01-26T13:48:47.831Z,70.97
2023-01-26T13:59:23.569Z,70.96
2023-01-26T14:10:34.217Z,71.93
2023-01-26T14:21:35.423Z,71.78
2023-01-26T14:32:29.836Z,72.40
2023-01-26T14:43:00.541Z,72.67
2023-01-26T14:53:28.782Z,73.26
2023-01-26T15:03:43.343Z,73.37
2023-01-26T15:13:52.566Z,74.11
2023-01-26T15:23:59.072Z,74.66
2023-01-26T15:34:07.567Z,74.90
2023-01-26T15:44:21.964Z,75.17
2023-01-26T15:54:36.541Z,75.33
2023-01-26T16:04:47.250Z,75.41
2023-01-26T16:14:56.783Z,75.29
2023-01-26T16:25:00.909Z,75.40
2023-01-26T16:35:16.659Z,75.81
2023-01-26T16:45:27.193Z,75.66
2023-01-26T16:55:38.164Z,75.70
2023-01-26T17:05:43.831Z,75.84
2023-01-26T17:16:19.163Z,76.17
2023-01-26T17:26:36.549Z,75.86
2023-01-26T17:37:17.801Z,76.13
2023-01-26T17:47:45.229Z,76.40
2023-01-26T17:58:21.944Z,76.57
2023-01-26T18:08:30.801Z,76.38
2023-01-26T18:19:09.786Z,76.56
2023-01-26T18:29:55.403Z,76.76
2023-01-26T18:40:24.659Z,76.64
2023-01-26T18:50:57.518Z,77.03
2023-01-26T19:01:24.354Z,76.53
2023-01-26T19:12:16.291Z,77.20
2023-01-26T19:22:25.034Z,77.22
2023-01-26T19:32:33.716Z,77.00
2023-01-26T19:43:11.001Z,77.21
2023-01-26T19:53:47.511Z,77.26
2023-01-26T20:04:23.058Z,77.72
2023-01-26T20:15:18.390Z,77.93
2023-01-26T20:26:33.874Z,77.72
2023-01-26T20:37:11.251Z,77.98
2023-01-26T20:47:58.117Z,77.79
2023-01-26T20:58:34.199Z,77.69
2023-01-26T21:09:36.549Z,78.13
2023-01-26T21:20:12.986Z,78.22
2023-01-26T21:31:09.830Z,78.41
2023-01-26T21:41:48.283Z,78.32
2023-01-26T21:53:19.427Z,78.21
2023-01-26T22:03:52.589Z,78.82
2023-01-26T22:13:59.680Z,79.13
2023-01-26T22:24:18.428Z,78.59
2023-01-26T22:34:22.587Z,78.85
2023-01-26T22:44:43.258Z,78.79
2023-01-26T22:55:07.856Z,79.14
2023-01-26T23:05:11.948Z,79.12
2023-01-26T23:15:56.202Z,79.16
2023-01-26T23:37:26.002Z,79.12
2023-01-26T23:47:55.660Z,79.26
2023-01-26T23:58:23.069Z,79.97
